Time;durP1;ratioP1;P1;durP2;ratioP2;P2;SDS_P1;SDS_P2;PMS_P1;PMS_P2;Temp;Humidity;BMP_temperature;BMP_pressure;BME280_temperature;BME280_humidity;BME280_pressure;Samples;Min_cycle;Max_cycle;Signal;HPM_P1;HPM_P2
2023/05/01 00:02:07;;;;;;;3.15;0.50;;;;;;;;;;5281750;28;20146;-75
2023/05/01 00:04:39;;;;;;;3.08;0.70;;;;;;;;;;5280799;28;20017;-76
2023/05/01 00:07:10;;;;;;;2.83;0.82;;;;;;;;;;5282053;28;20033;-75
2023/05/01 00:09:42;;;;;;;1.83;0.60;;;;;;;;;;5281422;28;20032;-74
2023/05/01 00:12:13;;;;;;;3.00;0.75;;;;;;;;;;5280967;28;20025;-76
2023/05/01 00:14:44;;;;;;;2.97;0.60;;;;;;;;;;5281152;28;20344;-76
2023/05/01 00:17:16;;;;;;;4.60;0.93;;;;;;;;;;5280943;28;20029;-75
2023/05/01 00:19:50;;;;;;;3.92;0.80;;;;;;;;;;5281483;28;20100;-76
2023/05/01 00:22:21;;;;;;;3.13;0.60;;;;;;;;;;5281967;28;20166;-77
2023/05/01 00:24:52;;;;;;;4.57;0.87;;;;;;;;;;5283758;28;20103;-75
2023/05/01 00:27:24;;;;;;;3.03;0.65;;;;;;;;;;5286060;28;20294;-76
2023/05/01 00:29:55;;;;;;;2.78;0.80;;;;;;;;;;5285371;28;20017;-76
2023/05/01 00:32:26;;;;;;;2.53;0.65;;;;;;;;;;5285240;28;20392;-75
2023/05/01 00:34:58;;;;;;;2.67;0.60;;;;;;;;;;5285444;28;20487;-75
2023/05/01 00:37:29;;;;;;;3.30;0.73;;;;;;;;;;5285755;28;20013;-76
2023/05/01 00:40:00;;;;;;;2.95;0.60;;;;;;;;;;5285018;28;20035;-75
2023/05/01 00:42:35;;;;;;;2.38;0.70;;;;;;;;;;5285310;28;20047;-76
2023/05/01 00:45:06;;;;;;;3.22;0.73;;;;;;;;;;5285400;28;20498;-76
2023/05/01 00:47:38;;;;;;;3.45;0.80;;;;;;;;;;5284415;28;20016;-76
2023/05/01 00:50:09;;;;;;;2.40;0.70;;;;;;;;;;5285365;28;20142;-75
2023/05/01 00:52:41;;;;;;;2.05;0.63;;;;;;;;;;5284453;28;20501;-75
2023/05/01 00:55:12;;;;;;;2.63;0.70;;;;;;;;;;5285415;28;20040;-76
2023/05/01 00:57:44;;;;;;;2.58;0.68;;;;;;;;;;5284784;28;20017;-76
2023/05/01 01:00:18;;;;;;;2.53;0.60;;;;;;;;;;5284426;28;20100;-74
2023/05/01 01:02:49;;;;;;;1.55;0.70;;;;;;;;;;5284499;28;20024;-76
2023/05/01 01:05:23;;;;;;;2.85;0.70;;;;;;;;;;5285367;28;20025;-77
2023/05/01 01:07:57;;;;;;;2.20;0.98;;;;;;;;;;5283770;28;20029;-75
2023/05/01 01:10:48;;;;;;;3.42;0.60;;;;;;;;;;5285115;28;20025;-75
2023/05/01 01:13:27;;;;;;;2.85;0.60;;;;;;;;;;5280048;28;20085;-76
2023/05/01 01:16:06;;;;;;;3.78;0.70;;;;;;;;;;5284818;28;20025;-75
2023/05/01 01:18:47;;;;;;;3.08;1.30;;;;;;;;;;5283405;28;20025;-76
2023/05/01 01:21:24;;;;;;;2.80;0.80;;;;;;;;;;5284149;28;20139;-75
2023/05/01 01:24:14;;;;;;;2.80;0.90;;;;;;;;;;5288622;28;20044;-74
2023/05/01 01:27:01;;;;;;;4.50;0.90;;;;;;;;;;5287338;28;20116;-75
2023/05/01 01:29:51;;;;;;;2.05;0.75;;;;;;;;;;5284046;28;20031;-74
2023/05/01 01:32:32;;;;;;;1.90;0.80;;;;;;;;;;5285257;28;20032;-76
2023/05/01 01:35:07;;;;;;;1.58;0.70;;;;;;;;;;5283011;28;20170;-76
2023/05/01 01:37:46;;;;;;;2.70;0.82;;;;;;;;;;5284240;28;20383;-76
2023/05/01 01:40:20;;;;;;;5.68;0.85;;;;;;;;;;5284809;28;20013;-75
2023/05/01 01:42:54;;;;;;;3.17;1.20;;;;;;;;;;5283455;28;20431;-76
2023/05/01 01:45:29;;;;;;;3.10;1.00;;;;;;;;;;5284661;28;20028;-75
2023/05/01 01:48:01;;;;;;;3.83;0.98;;;;;;;;;;5284109;28;20031;-76
2023/05/01 01:50:35;;;;;;;2.00;0.68;;;;;;;;;;5283257;28;20070;-76
2023/05/01 01:53:08;;;;;;;4.85;1.20;;;;;;;;;;5284090;28;20021;-76
2023/05/01 01:55:40;;;;;;;4.40;1.20;;;;;;;;;;5282618;28;20045;-76
2023/05/01 01:58:12;;;;;;;4.57;1.30;;;;;;;;;;5284181;28;20028;-76
2023/05/01 02:00:44;;;;;;;2.97;0.77;;;;;;;;;;5283606;28;20024;-76
2023/05/01 02:03:16;;;;;;;2.53;0.75;;;;;;;;;;5283441;28;20427;-76
2023/05/01 02:05:49;;;;;;;4.57;1.10;;;;;;;;;;5283825;28;20068;-76
2023/05/01 02:08:21;;;;;;;2.05;0.65;;;;;;;;;;5284306;28;20021;-76
2023/05/01 02:10:56;;;;;;;3.70;1.08;;;;;;;;;;5283116;28;20091;-75
2023/05/01 02:13:28;;;;;;;2.95;1.00;;;;;;;;;;5283929;28;20395;-76
2023/05/01 02:16:01;;;;;;;4.47;0.82;;;;;;;;;;5283418;28;20024;-75
2023/05/01 02:18:33;;;;;;;2.55;1.20;;;;;;;;;;5282788;28;20511;-76
2023/05/01 02:21:04;;;;;;;6.22;1.25;;;;;;;;;;5283525;28;20099;-76
2023/05/01 02:23:36;;;;;;;4.47;1.08;;;;;;;;;;5283425;28;20040;-75
2023/05/01 02:26:09;;;;;;;2.40;1.08;;;;;;;;;;5282395;28;20025;-76
2023/05/01 02:28:41;;;;;;;2.90;0.85;;;;;;;;;;5283114;28;20096;-75
2023/05/01 02:31:12;;;;;;;2.70;1.08;;;;;;;;;;5282858;28;20092;-76
2023/05/01 02:33:43;;;;;;;2.67;1.10;;;;;;;;;;5282850;28;20127;-75
2023/05/01 02:36:14;;;;;;;4.88;1.10;;;;;;;;;;5283355;28;20103;-75
2023/05/01 02:38:46;;;;;;;2.42;0.90;;;;;;;;;;5281959;28;20451;-76
2023/05/01 02:41:20;;;;;;;2.17;0.90;;;;;;;;;;5283296;28;20035;-75
2023/05/01 02:43:54;;;;;;;3.33;1.10;;;;;;;;;;5282578;28;20016;-76
2023/05/01 02:46:26;;;;;;;3.63;1.10;;;;;;;;;;5282060;28;20039;-76
2023/05/01 02:48:58;;;;;;;4.10;1.00;;;;;;;;;;5283002;28;20633;-75
2023/05/01 02:51:30;;;;;;;2.42;0.93;;;;;;;;;;5282780;28;20060;-76
2023/05/01 02:54:02;;;;;;;2.17;1.00;;;;;;;;;;5281845;28;20047;-76
2023/05/01 02:56:34;;;;;;;5.22;1.10;;;;;;;;;;5282750;28;20017;-76
2023/05/01 02:59:05;;;;;;;3.65;1.08;;;;;;;;;;5281718;28;20032;-75
2023/05/01 03:01:36;;;;;;;6.38;2.08;;;;;;;;;;5282566;28;20012;-76
2023/05/01 03:04:07;;;;;;;2.50;1.10;;;;;;;;;;5282532;28;20039;-75
2023/05/01 03:06:39;;;;;;;2.35;0.90;;;;;;;;;;5281634;28;20467;-76
2023/05/01 03:09:10;;;;;;;2.47;0.95;;;;;;;;;;5282859;28;20027;-76
2023/05/01 03:11:41;;;;;;;5.57;1.45;;;;;;;;;;5281855;28;20348;-76
2023/05/01 03:14:13;;;;;;;4.10;1.30;;;;;;;;;;5282073;28;20371;-75
2023/05/01 03:16:44;;;;;;;3.90;1.40;;;;;;;;;;5282082;28;20025;-75
2023/05/01 03:19:15;;;;;;;2.97;1.13;;;;;;;;;;5282620;28;20149;-75
2023/05/01 03:21:46;;;;;;;2.53;1.30;;;;;;;;;;5281656;28;20031;-76
2023/05/01 03:24:17;;;;;;;3.58;1.50;;;;;;;;;;5282593;28;20027;-75
2023/05/01 03:26:49;;;;;;;6.60;1.83;;;;;;;;;;5282078;28;20044;-76
2023/05/01 03:29:20;;;;;;;5.85;1.30;;;;;;;;;;5281893;28;20017;-75
2023/05/01 03:31:51;;;;;;;3.78;1.35;;;;;;;;;;5281975;28;20043;-76
2023/05/01 03:34:22;;;;;;;3.97;1.35;;;;;;;;;;5281594;28;20040;-76
2023/05/01 03:36:54;;;;;;;4.43;1.63;;;;;;;;;;5281709;28;20061;-76
2023/05/01 03:39:25;;;;;;;4.07;1.20;;;;;;;;;;5282453;28;20052;-75
2023/05/01 03:41:56;;;;;;;2.30;1.13;;;;;;;;;;5280907;28;20091;-76
2023/05/01 03:44:27;;;;;;;3.40;1.20;;;;;;;;;;5282127;28;20358;-75
2023/05/01 03:46:58;;;;;;;4.07;1.73;;;;;;;;;;5281515;28;20028;-75
2023/05/01 03:49:29;;;;;;;3.63;1.50;;;;;;;;;;5280998;28;20320;-76
2023/05/01 03:52:01;;;;;;;3.30;1.60;;;;;;;;;;5281939;28;20258;-75
2023/05/01 03:54:32;;;;;;;2.95;1.27;;;;;;;;;;5281374;28;20067;-76
2023/05/01 03:57:03;;;;;;;5.00;1.58;;;;;;;;;;5280823;28;20372;-76
2023/05/01 03:59:34;;;;;;;1.90;1.27;;;;;;;;;;5280977;28;20020;-76
2023/05/01 04:02:05;;;;;;;3.33;1.50;;;;;;;;;;5281829;28;20028;-76
2023/05/01 04:04:37;;;;;;;3.92;1.33;;;;;;;;;;5280787;28;20255;-75
2023/05/01 04:07:08;;;;;;;3.85;1.73;;;;;;;;;;5282041;28;20021;-75
2023/05/01 04:09:39;;;;;;;2.60;1.60;;;;;;;;;;5280637;28;20376;-76
2023/05/01 04:12:10;;;;;;;3.72;1.60;;;;;;;;;;5281670;28;20028;-74
2023/05/01 04:14:43;;;;;;;5.30;1.95;;;;;;;;;;5281186;28;20017;-74
2023/05/01 04:17:14;;;;;;;2.33;1.45;;;;;;;;;;5280810;28;20258;-74
2023/05/01 04:19:46;;;;;;;3.50;1.05;;;;;;;;;;5280904;28;20012;-74
2023/05/01 04:22:18;;;;;;;4.18;1.67;;;;;;;;;;5281690;28;20028;-74
2023/05/01 04:24:50;;;;;;;3.42;1.30;;;;;;;;;;5280314;28;20054;-76
2023/05/01 04:27:21;;;;;;;4.63;1.80;;;;;;;;;;5282027;28;20032;-74
2023/05/01 04:29:52;;;;;;;3.83;1.80;;;;;;;;;;5281124;28;20028;-75
2023/05/01 04:32:23;;;;;;;3.15;1.67;;;;;;;;;;5280988;28;20360;-76
2023/05/01 04:34:55;;;;;;;3.20;1.73;;;;;;;;;;5280880;28;20016;-75
2023/05/01 04:37:26;;;;;;;5.35;1.40;;;;;;;;;;5280689;28;20055;-75
2023/05/01 04:39:57;;;;;;;2.38;1.50;;;;;;;;;;5281365;28;20512;-75
2023/05/01 04:42:29;;;;;;;3.47;1.83;;;;;;;;;;5281599;28;20025;-74
2023/05/01 04:45:02;;;;;;;3.50;1.70;;;;;;;;;;5280555;28;20020;-75
2023/05/01 04:47:34;;;;;;;5.47;1.40;;;;;;;;;;5285612;28;20020;-75
2023/05/01 04:50:05;;;;;;;3.97;1.65;;;;;;;;;;5286571;28;20463;-75
2023/05/01 04:52:36;;;;;;;3.65;1.75;;;;;;;;;;5280800;28;20035;-75
2023/05/01 04:55:08;;;;;;;4.53;1.80;;;;;;;;;;5281434;28;20098;-75
2023/05/01 04:57:39;;;;;;;6.72;1.83;;;;;;;;;;5280672;28;20282;-75
2023/05/01 05:00:11;;;;;;;3.85;1.60;;;;;;;;;;5280528;28;20074;-75
2023/05/01 05:02:42;;;;;;;4.53;1.92;;;;;;;;;;5280476;28;20017;-75
2023/05/01 05:05:13;;;;;;;3.72;1.83;;;;;;;;;;5281272;28;20013;-75
2023/05/01 05:07:44;;;;;;;4.18;1.92;;;;;;;;;;5279892;28;20032;-75
2023/05/01 05:10:15;;;;;;;5.75;2.47;;;;;;;;;;5283257;28;20422;-75
2023/05/01 05:12:46;;;;;;;4.45;2.00;;;;;;;;;;5283567;28;20070;-75
2023/05/01 05:15:18;;;;;;;5.07;2.42;;;;;;;;;;5284993;28;20263;-75
2023/05/01 05:17:49;;;;;;;6.43;2.55;;;;;;;;;;5284780;28;20025;-76
2023/05/01 05:20:20;;;;;;;2.78;1.75;;;;;;;;;;5284088;28;20255;-75
2023/05/01 05:22:51;;;;;;;4.85;1.92;;;;;;;;;;5284347;28;20020;-75
2023/05/01 05:25:23;;;;;;;5.07;2.15;;;;;;;;;;5284744;28;20016;-75
2023/05/01 05:27:54;;;;;;;3.78;2.67;;;;;;;;;;5283641;28;20040;-75
2023/05/01 05:30:26;;;;;;;3.77;2.27;;;;;;;;;;5285004;28;20040;-75
2023/05/01 05:32:57;;;;;;;6.10;2.58;;;;;;;;;;5284650;28;20290;-75
2023/05/01 05:35:28;;;;;;;5.50;2.53;;;;;;;;;;5283905;28;20023;-75
2023/05/01 05:37:59;;;;;;;6.28;2.58;;;;;;;;;;5284291;28;20099;-75
2023/05/01 05:40:30;;;;;;;6.03;3.15;;;;;;;;;;5284371;28;20027;-75
2023/05/01 05:43:02;;;;;;;6.25;2.58;;;;;;;;;;5283646;28;20048;-75
2023/05/01 05:45:33;;;;;;;7.97;2.90;;;;;;;;;;5284091;28;20017;-75
2023/05/01 05:48:04;;;;;;;5.97;2.40;;;;;;;;;;5283168;28;20059;-76
2023/05/01 05:50:36;;;;;;;3.65;2.25;;;;;;;;;;5284295;28;20009;-76
2023/05/01 05:53:08;;;;;;;3.63;2.22;;;;;;;;;;5284198;28;20021;-75
2023/05/01 05:55:39;;;;;;;3.85;2.22;;;;;;;;;;5282957;28;20040;-76
2023/05/01 05:58:11;;;;;;;4.90;3.28;;;;;;;;;;5284357;28;20058;-73
2023/05/01 06:00:42;;;;;;;5.22;2.95;;;;;;;;;;5283484;28;20463;-75
2023/05/01 06:03:13;;;;;;;6.37;2.60;;;;;;;;;;5283505;28;20047;-75
2023/05/01 06:05:44;;;;;;;4.90;2.72;;;;;;;;;;5283280;28;20287;-75
2023/05/01 06:08:16;;;;;;;5.30;3.15;;;;;;;;;;5284588;28;20029;-75
2023/05/01 06:10:47;;;;;;;5.25;2.63;;;;;;;;;;5282573;28;20016;-74
2023/05/01 06:13:18;;;;;;;6.78;2.33;;;;;;;;;;5284027;28;20078;-74
2023/05/01 06:15:49;;;;;;;3.80;2.72;;;;;;;;;;5282816;28;20533;-74
2023/05/01 06:18:21;;;;;;;4.68;2.50;;;;;;;;;;5283942;28;20009;-74
2023/05/01 06:20:53;;;;;;;4.53;2.97;;;;;;;;;;5282699;28;20039;-74
2023/05/01 06:23:24;;;;;;;4.20;2.30;;;;;;;;;;5282927;28;20365;-74
2023/05/01 06:25:55;;;;;;;5.22;2.58;;;;;;;;;;5283332;28;20028;-75
2023/05/01 06:28:27;;;;;;;5.53;3.65;;;;;;;;;;5283860;28;20021;-74
2023/05/01 06:30:58;;;;;;;6.53;2.95;;;;;;;;;;5282156;28;20357;-74
2023/05/01 06:33:29;;;;;;;5.77;3.47;;;;;;;;;;5283381;28;20147;-74
2023/05/01 06:36:01;;;;;;;4.93;3.05;;;;;;;;;;5282992;28;20753;-74
2023/05/01 06:38:32;;;;;;;5.57;3.25;;;;;;;;;;5282474;28;20028;-70
2023/05/01 06:41:04;;;;;;;7.37;3.50;;;;;;;;;;5282873;28;20019;-71
2023/05/01 06:43:35;;;;;;;7.80;3.25;;;;;;;;;;5283035;28;20267;-74
2023/05/01 06:46:06;;;;;;;6.50;3.63;;;;;;;;;;5282152;28;20033;-73
2023/05/01 06:48:37;;;;;;;6.03;3.45;;;;;;;;;;5282433;28;20016;-71
2023/05/01 06:51:09;;;;;;;5.70;2.60;;;;;;;;;;5282396;28;20023;-72
2023/05/01 06:53:40;;;;;;;4.63;3.00;;;;;;;;;;5282522;28;20013;-74
2023/05/01 06:56:11;;;;;;;5.75;3.53;;;;;;;;;;5282811;28;20119;-74
2023/05/01 06:58:42;;;;;;;7.05;3.17;;;;;;;;;;5281665;28;20028;-75
2023/05/01 07:01:14;;;;;;;6.63;3.65;;;;;;;;;;5282793;28;20281;-74
2023/05/01 07:03:45;;;;;;;3.70;2.80;;;;;;;;;;5282574;28;20016;-74
2023/05/01 07:06:16;;;;;;;6.18;3.17;;;;;;;;;;5282073;28;20370;-75
2023/05/01 07:08:48;;;;;;;6.68;3.40;;;;;;;;;;5282189;28;20100;-75
2023/05/01 07:11:19;;;;;;;5.22;3.00;;;;;;;;;;5282501;28;20262;-75
2023/05/01 07:13:50;;;;;;;6.63;3.40;;;;;;;;;;5281594;28;20378;-75
2023/05/01 07:16:21;;;;;;;7.57;3.20;;;;;;;;;;5282622;28;20021;-75
2023/05/01 07:18:52;;;;;;;4.53;3.03;;;;;;;;;;5282001;28;20362;-75
2023/05/01 07:21:24;;;;;;;5.63;2.95;;;;;;;;;;5281764;28;20271;-76
2023/05/01 07:23:55;;;;;;;4.68;3.20;;;;;;;;;;5281874;28;20379;-75
2023/05/01 07:26:26;;;;;;;6.07;3.72;;;;;;;;;;5281907;28;20477;-76
2023/05/01 07:28:57;;;;;;;8.50;3.38;;;;;;;;;;5282020;28;20103;-76
2023/05/01 07:31:28;;;;;;;6.93;3.20;;;;;;;;;;5282485;28;20024;-75
2023/05/01 07:34:00;;;;;;;6.57;2.95;;;;;;;;;;5280453;28;20396;-76
2023/05/01 07:36:32;;;;;;;8.13;3.53;;;;;;;;;;5282077;28;20040;-76
2023/05/01 07:39:04;;;;;;;6.97;3.45;;;;;;;;;;5282194;28;20154;-76
2023/05/01 07:41:35;;;;;;;6.38;3.50;;;;;;;;;;5281368;28;20107;-76
2023/05/01 07:44:06;;;;;;;8.60;3.35;;;;;;;;;;5282067;28;20031;-75
2023/05/01 07:46:37;;;;;;;5.10;3.37;;;;;;;;;;5281583;28;20295;-76
2023/05/01 07:49:08;;;;;;;5.60;3.00;;;;;;;;;;5281136;28;20285;-76
2023/05/01 07:51:41;;;;;;;7.13;3.45;;;;;;;;;;5281753;28;20354;-76
2023/05/01 07:54:14;;;;;;;7.47;3.30;;;;;;;;;;5282095;28;20040;-76
2023/05/01 07:56:46;;;;;;;8.80;3.70;;;;;;;;;;5280818;28;20028;-76
2023/05/01 07:59:17;;;;;;;9.57;3.53;;;;;;;;;;5281651;28;20019;-77
2023/05/01 08:01:48;;;;;;;8.82;4.47;;;;;;;;;;5281017;28;20347;-76
2023/05/01 08:04:21;;;;;;;8.37;3.67;;;;;;;;;;5281820;28;20019;-77
2023/05/01 08:06:52;;;;;;;7.80;3.28;;;;;;;;;;5280662;28;20295;-72
2023/05/01 08:09:23;;;;;;;10.20;3.90;;;;;;;;;;5286366;28;20016;-77
2023/05/01 08:11:55;;;;;;;8.80;3.80;;;;;;;;;;5287303;28;20024;-77
2023/05/01 08:14:26;;;;;;;5.13;4.03;;;;;;;;;;5283558;28;20324;-77
2023/05/01 08:16:57;;;;;;;7.43;3.55;;;;;;;;;;5281156;28;20290;-77
2023/05/01 08:19:28;;;;;;;7.90;3.42;;;;;;;;;;5281653;28;20446;-77
2023/05/01 08:22:00;;;;;;;7.38;3.67;;;;;;;;;;5281180;28;20098;-78
2023/05/01 08:24:31;;;;;;;8.63;4.38;;;;;;;;;;5280200;28;20024;-77
2023/05/01 08:27:02;;;;;;;4.70;2.40;;;;;;;;;;5281615;28;20306;-77
2023/05/01 08:29:33;;;;;;;5.57;2.95;;;;;;;;;;5280784;28;20729;-78
2023/05/01 08:32:05;;;;;;;4.90;2.83;;;;;;;;;;5281314;28;20013;-77
2023/05/01 08:34:36;;;;;;;5.38;2.47;;;;;;;;;;5281336;28;20074;-77
2023/05/01 08:37:07;;;;;;;7.20;3.33;;;;;;;;;;5280604;28;20047;-77
2023/05/01 08:39:38;;;;;;;5.30;2.77;;;;;;;;;;5280476;28;20048;-77
2023/05/01 08:42:10;;;;;;;7.70;3.10;;;;;;;;;;5281489;28;20269;-72
2023/05/01 08:44:42;;;;;;;6.05;2.53;;;;;;;;;;5281506;28;20742;-76
2023/05/01 08:47:17;;;;;;;6.65;2.55;;;;;;;;;;5285562;28;20024;-75
2023/05/01 08:49:50;;;;;;;4.78;2.47;;;;;;;;;;5284959;28;20026;-76
2023/05/01 08:52:21;;;;;;;6.32;2.35;;;;;;;;;;5285078;28;20021;-78
2023/05/01 08:54:55;;;;;;;4.93;2.53;;;;;;;;;;5284628;28;20051;-77
2023/05/01 08:57:28;;;;;;;5.65;3.05;;;;;;;;;;5285209;28;20017;-76
2023/05/01 09:00:00;;;;;;;6.13;2.78;;;;;;;;;;5284524;28;20024;-77
2023/05/01 09:02:33;;;;;;;5.18;2.53;;;;;;;;;;5284721;28;20115;-75
2023/05/01 09:05:04;;;;;;;7.00;2.33;;;;;;;;;;5283879;28;20065;-75
2023/05/01 09:07:36;;;;;;;5.20;2.65;;;;;;;;;;5284422;28;20028;-76
2023/05/01 09:10:08;;;;;;;3.40;2.55;;;;;;;;;;5283701;28;20100;-75
2023/05/01 09:12:40;;;;;;;4.35;2.40;;;;;;;;;;5283882;28;20039;-76
2023/05/01 09:15:11;;;;;;;4.18;1.90;;;;;;;;;;5284657;28;20490;-75
2023/05/01 09:17:43;;;;;;;4.93;2.55;;;;;;;;;;5283638;28;20020;-77
2023/05/01 09:20:16;;;;;;;5.80;2.67;;;;;;;;;;5282983;28;20020;-76
2023/05/01 09:22:48;;;;;;;4.97;2.47;;;;;;;;;;5283337;28;20025;-75
2023/05/01 09:25:19;;;;;;;6.28;3.05;;;;;;;;;;5284136;28;20024;-74
2023/05/01 09:27:50;;;;;;;4.90;2.53;;;;;;;;;;5283503;28;20036;-76
2023/05/01 09:30:29;;;;;;;4.35;2.38;;;;;;;;;;5284721;28;20040;-77
2023/05/01 09:33:18;;;;;;;5.75;2.22;;;;;;;;;;5283371;28;20020;-77
2023/05/01 09:35:50;;;;;;;5.63;2.85;;;;;;;;;;5284323;28;20460;-76
2023/05/01 09:38:22;;;;;;;4.57;2.33;;;;;;;;;;5284466;28;20051;-76
2023/05/01 09:40:57;;;;;;;5.57;2.30;;;;;;;;;;5282903;28;20020;-76
2023/05/01 09:43:28;;;;;;;7.35;2.53;;;;;;;;;;5284051;28;20024;-76
2023/05/01 09:46:01;;;;;;;4.88;2.60;;;;;;;;;;5284034;28;20028;-76
2023/05/01 09:48:33;;;;;;;5.43;2.70;;;;;;;;;;5283225;28;20055;-77
2023/05/01 09:51:24;;;;;;;4.18;2.55;;;;;;;;;;5283975;28;20075;-76
2023/05/01 09:53:56;;;;;;;4.53;2.40;;;;;;;;;;5282630;28;20020;-76
2023/05/01 09:56:28;;;;;;;5.15;2.08;;;;;;;;;;5282930;28;20025;-77
2023/05/01 09:59:16;;;;;;;5.53;2.80;;;;;;;;;;5283518;28;20093;-77
2023/05/01 10:01:48;;;;;;;3.93;2.20;;;;;;;;;;5282919;28;20060;-77
2023/05/01 10:04:28;;;;;;;4.57;2.45;;;;;;;;;;5283981;28;20012;-77
2023/05/01 10:07:12;;;;;;;4.90;2.75;;;;;;;;;;5283113;28;20463;-77
2023/05/01 10:09:43;;;;;;;6.18;2.22;;;;;;;;;;5282614;28;20077;-76
2023/05/01 10:12:22;;;;;;;3.53;2.17;;;;;;;;;;5283579;28;20417;-76
2023/05/01 10:14:53;;;;;;;6.30;2.08;;;;;;;;;;5282710;28;20028;-76
2023/05/01 10:17:25;;;;;;;4.85;2.08;;;;;;;;;;5282765;28;20021;-76
2023/05/01 10:19:56;;;;;;;3.90;2.43;;;;;;;;;;5282285;28;20025;-76
2023/05/01 10:22:27;;;;;;;6.00;3.77;;;;;;;;;;5280412;28;20275;-76
2023/05/01 10:24:59;;;;;;;5.80;2.85;;;;;;;;;;5280906;28;20706;-77
2023/05/01 10:27:30;;;;;;;6.70;3.13;;;;;;;;;;5281203;28;20029;-75
2023/05/01 10:30:05;;;;;;;5.63;3.00;;;;;;;;;;5280724;28;20100;-72
2023/05/01 10:32:37;;;;;;;5.43;2.97;;;;;;;;;;5277117;28;20055;-74
2023/05/01 10:35:13;;;;;;;9.02;3.45;;;;;;;;;;5280517;28;20020;-75
2023/05/01 10:37:57;;;;;;;7.10;3.70;;;;;;;;;;5279747;28;20107;-74
2023/05/01 10:40:37;;;;;;;5.80;3.55;;;;;;;;;;5281199;28;20016;-76
2023/05/01 10:43:18;;;;;;;3.80;2.80;;;;;;;;;;5279521;28;20029;-74
2023/05/01 10:45:49;;;;;;;6.38;3.70;;;;;;;;;;5278929;28;20086;-74
2023/05/01 10:48:43;;;;;;;5.70;3.30;;;;;;;;;;5280284;28;20012;-73
2023/05/01 10:51:19;;;;;;;6.28;2.80;;;;;;;;;;5280834;28;20028;-71
2023/05/01 10:54:10;;;;;;;5.82;3.58;;;;;;;;;;5282332;28;20017;-72
2023/05/01 10:56:42;;;;;;;4.72;3.65;;;;;;;;;;5274884;28;20028;-71
2023/05/01 10:59:13;;;;;;;4.75;3.00;;;;;;;;;;5282289;28;20486;-72
2023/05/01 11:01:46;;;;;;;5.68;3.38;;;;;;;;;;5282268;28;20020;-73
2023/05/01 11:04:17;;;;;;;7.80;4.20;;;;;;;;;;5281888;28;20012;-71
2023/05/01 11:07:04;;;;;;;6.30;3.97;;;;;;;;;;5281828;28;20032;-71
2023/05/01 11:09:42;;;;;;;5.32;3.45;;;;;;;;;;5282273;28;20442;-71
2023/05/01 11:12:14;;;;;;;8.47;3.80;;;;;;;;;;5281436;28;20075;-71
2023/05/01 11:14:55;;;;;;;5.15;3.38;;;;;;;;;;5281779;28;20372;-72
2023/05/01 11:17:42;;;;;;;7.45;4.10;;;;;;;;;;5282591;28;20509;-71
2023/05/01 11:20:33;;;;;;;6.70;3.28;;;;;;;;;;5281622;28;20090;-71
2023/05/01 11:23:05;;;;;;;5.88;3.45;;;;;;;;;;5274429;28;20028;-71
2023/05/01 11:25:36;;;;;;;8.88;3.65;;;;;;;;;;5278868;28;20028;-72
2023/05/01 11:28:08;;;;;;;7.85;3.20;;;;;;;;;;5279956;28;20017;-71
2023/05/01 11:30:40;;;;;;;6.78;3.55;;;;;;;;;;5279835;28;20028;-69
2023/05/01 11:33:12;;;;;;;8.07;3.22;;;;;;;;;;5279391;28;20016;-70
2023/05/01 11:35:44;;;;;;;5.22;2.67;;;;;;;;;;5279835;28;20549;-69
2023/05/01 11:38:17;;;;;;;4.25;2.90;;;;;;;;;;5280801;28;20013;-69
2023/05/01 11:40:54;;;;;;;4.57;2.47;;;;;;;;;;5280617;28;20045;-69
2023/05/01 11:43:25;;;;;;;5.25;2.90;;;;;;;;;;5282219;28;20074;-69
2023/05/01 11:46:01;;;;;;;7.03;2.67;;;;;;;;;;5281255;28;20020;-69
2023/05/01 11:48:32;;;;;;;4.22;2.10;;;;;;;;;;5280836;28;20017;-69
2023/05/01 11:51:11;;;;;;;4.35;2.35;;;;;;;;;;5281663;28;20016;-69
2023/05/01 11:53:42;;;;;;;;;;;;;;;;;;5281161;28;20029;-69
2023/05/01 11:56:19;;;;;;;3.78;1.98;;;;;;;;;;5281700;28;19920;-69
2023/05/01 11:58:52;;;;;;;4.47;2.28;;;;;;;;;;5281442;28;20031;-69
2023/05/01 12:01:33;;;;;;;5.82;2.38;;;;;;;;;;5281333;28;20032;-69
2023/05/01 12:04:06;;;;;;;4.65;2.97;;;;;;;;;;5281578;28;20016;-69
2023/05/01 12:06:45;;;;;;;5.38;3.67;;;;;;;;;;5281143;28;20025;-70
2023/05/01 12:09:20;;;;;;;5.75;3.40;;;;;;;;;;5281000;28;20028;-70
2023/05/01 12:11:51;;;;;;;7.65;3.17;;;;;;;;;;5281463;28;20036;-70
2023/05/01 12:14:23;;;;;;;6.32;3.88;;;;;;;;;;5281732;28;20023;-70
2023/05/01 12:16:54;;;;;;;6.70;3.13;;;;;;;;;;5280270;28;20086;-70
2023/05/01 12:19:25;;;;;;;5.65;3.30;;;;;;;;;;5281056;28;20544;-70
2023/05/01 12:22:09;;;;;;;6.15;2.85;;;;;;;;;;5280183;28;20028;-69
2023/05/01 12:24:51;;;;;;;4.40;2.70;;;;;;;;;;5281325;28;20439;-70
2023/05/01 12:27:22;;;;;;;3.47;2.58;;;;;;;;;;5281671;28;20028;-70
2023/05/01 12:29:53;;;;;;;5.35;2.22;;;;;;;;;;5280106;28;20013;-68
2023/05/01 12:32:32;;;;;;;6.50;2.63;;;;;;;;;;5281737;28;20487;-69
2023/05/01 12:35:16;;;;;;;4.50;2.25;;;;;;;;;;5281146;28;20036;-68
2023/05/01 12:37:47;;;;;;;3.53;1.90;;;;;;;;;;5280361;28;20100;-69
2023/05/01 12:40:18;;;;;;;4.90;1.67;;;;;;;;;;5281479;28;20108;-69
2023/05/01 12:42:56;;;;;;;3.67;1.67;;;;;;;;;;5280166;28;20016;-69
2023/05/01 12:45:27;;;;;;;2.93;1.67;;;;;;;;;;5281779;28;20025;-69
2023/05/01 12:47:59;;;;;;;3.13;1.20;;;;;;;;;;5280826;28;20032;-69
2023/05/01 12:50:35;;;;;;;6.35;2.78;;;;;;;;;;5280415;28;20023;-69
2023/05/01 12:53:08;;;;;;;4.00;2.78;;;;;;;;;;5281039;28;20061;-69
2023/05/01 12:55:44;;;;;;;7.32;2.65;;;;;;;;;;5280596;28;20037;-69
2023/05/01 12:58:16;;;;;;;11.43;3.20;;;;;;;;;;5280961;28;20539;-69
2023/05/01 13:00:48;;;;;;;7.80;3.30;;;;;;;;;;5281749;28;20096;-69
2023/05/01 13:03:24;;;;;;;5.15;2.78;;;;;;;;;;5281183;28;20024;-69
2023/05/01 13:05:59;;;;;;;10.45;2.88;;;;;;;;;;5279936;28;20030;-69
2023/05/01 13:08:31;;;;;;;6.32;2.25;;;;;;;;;;5280935;28;20028;-69
2023/05/01 13:11:09;;;;;;;5.20;2.50;;;;;;;;;;5280103;28;20158;-69
2023/05/01 13:13:42;;;;;;;6.15;2.35;;;;;;;;;;5280472;28;20035;-69
2023/05/01 13:16:13;;;;;;;6.90;2.72;;;;;;;;;;5281052;28;20059;-71
2023/05/01 13:18:46;;;;;;;4.30;2.15;;;;;;;;;;5280009;28;20483;-69
2023/05/01 13:21:18;;;;;;;7.78;3.10;;;;;;;;;;5281397;28;20465;-69
2023/05/01 13:23:56;;;;;;;3.58;1.30;;;;;;;;;;5280416;28;20024;-75
2023/05/01 13:26:32;;;;;;;3.28;1.67;;;;;;;;;;5280325;28;20383;-74
2023/05/01 13:29:04;;;;;;;3.08;1.80;;;;;;;;;;5280894;28;20020;-74
2023/05/01 13:31:35;;;;;;;4.85;1.75;;;;;;;;;;5281760;28;20375;-77
2023/05/01 13:34:07;;;;;;;4.33;2.13;;;;;;;;;;5283510;28;20016;-71
2023/05/01 13:36:39;;;;;;;3.38;1.90;;;;;;;;;;5283908;28;20308;-71
2023/05/01 13:39:17;;;;;;;6.43;1.63;;;;;;;;;;5283796;28;20048;-72
2023/05/01 13:41:49;;;;;;;3.08;1.05;;;;;;;;;;5283831;28;20039;-72
2023/05/01 13:44:21;;;;;;;4.80;0.90;;;;;;;;;;5284331;28;20016;-74
2023/05/01 13:46:52;;;;;;;1.92;0.80;;;;;;;;;;5283215;28;20021;-74
2023/05/01 13:49:23;;;;;;;2.97;0.67;;;;;;;;;;5284275;28;20021;-74
2023/05/01 13:51:54;;;;;;;5.93;0.98;;;;;;;;;;5283676;28;20270;-74
2023/05/01 13:54:26;;;;;;;3.42;0.63;;;;;;;;;;5283356;28;20483;-74
2023/05/01 13:56:59;;;;;;;1.50;0.50;;;;;;;;;;5283762;28;20383;-74
2023/05/01 13:59:33;;;;;;;3.75;0.50;;;;;;;;;;5283806;28;20188;-74
2023/05/01 14:02:13;;;;;;;1.77;0.50;;;;;;;;;;5282807;28;20033;-74
2023/05/01 14:04:44;;;;;;;1.92;0.60;;;;;;;;;;5283528;28;20596;-75
2023/05/01 14:07:17;;;;;;;4.00;0.50;;;;;;;;;;5283307;28;20167;-74
2023/05/01 14:09:51;;;;;;;5.10;0.50;;;;;;;;;;5282825;28;20478;-74
2023/05/01 14:12:27;;;;;;;3.65;0.50;;;;;;;;;;5283829;28;20021;-74
2023/05/01 14:14:59;;;;;;;1.58;0.43;;;;;;;;;;5282691;28;20044;-74
2023/05/01 14:17:32;;;;;;;1.80;0.40;;;;;;;;;;5283669;28;20064;-74
2023/05/01 14:20:04;;;;;;;2.80;0.52;;;;;;;;;;5283407;28;20422;-75
2023/05/01 14:22:42;;;;;;;1.45;0.30;;;;;;;;;;5282679;28;20024;-74
2023/05/01 14:25:24;;;;;;;1.58;0.40;;;;;;;;;;5283121;28;20021;-74
2023/05/01 14:27:56;;;;;;;2.22;0.50;;;;;;;;;;5282762;28;20034;-75
2023/05/01 14:30:32;;;;;;;2.78;0.40;;;;;;;;;;5283015;28;20486;-75
2023/05/01 14:33:10;;;;;;;1.40;0.40;;;;;;;;;;5283140;28;20118;-75
2023/05/01 14:35:51;;;;;;;4.28;0.60;;;;;;;;;;5280981;28;20025;-75
2023/05/01 14:38:23;;;;;;;2.70;0.60;;;;;;;;;;5283044;28;20509;-75
2023/05/01 14:40:54;;;;;;;1.20;0.43;;;;;;;;;;5282295;28;20096;-75
2023/05/01 14:43:26;;;;;;;2.40;0.50;;;;;;;;;;5280047;28;20106;-75
2023/05/01 14:45:57;;;;;;;1.58;0.45;;;;;;;;;;5280404;28;20060;-75
2023/05/01 14:48:32;;;;;;;2.13;0.57;;;;;;;;;;5281196;28;20028;-75
2023/05/01 14:51:05;;;;;;;2.13;0.50;;;;;;;;;;5279839;28;20020;-75
2023/05/01 14:53:38;;;;;;;1.38;0.50;;;;;;;;;;5280462;28;20401;-75
2023/05/01 14:56:10;;;;;;;4.95;0.70;;;;;;;;;;5281032;28;20090;-75
2023/05/01 14:58:41;;;;;;;2.38;0.70;;;;;;;;;;5282010;28;20463;-75
2023/05/01 15:01:13;;;;;;;2.47;0.60;;;;;;;;;;5283087;28;20028;-77
2023/05/01 15:03:44;;;;;;;2.15;0.40;;;;;;;;;;5281827;28;20052;-76
2023/05/01 15:06:15;;;;;;;3.45;0.60;;;;;;;;;;5282659;28;20032;-76
2023/05/01 15:08:46;;;;;;;1.90;0.60;;;;;;;;;;5285970;28;20035;-76
2023/05/01 15:11:19;;;;;;;3.47;0.70;;;;;;;;;;5285460;28;20044;-76
2023/05/01 15:13:51;;;;;;;2.92;0.70;;;;;;;;;;5282610;28;20263;-76
2023/05/01 15:16:22;;;;;;;3.70;1.00;;;;;;;;;;5282828;28;20103;-76
2023/05/01 15:18:54;;;;;;;2.63;0.90;;;;;;;;;;5281331;28;20023;-76